PAL210 YMML-RPLL
Flight info
| Callsign | PAL210 |
|---|---|
| Flight time | N/A |
| Altitude | 38000 |
| Route | KEPPA DCT NATYA DCT IDKEG DCT TUNVI DCT BOU/N0467F400 DCT KAKTU DCT GTE DCT TOREX B472 IBAGO IBAGO1A |
| Aircraft | A333/H-SDE3GHIJ2J3J5M1RVWXY/LB2D1 |
Departure
| Time | N/A |
|---|---|
| Airport | Melbourne Airport (YMML) |
Arrival
| Time | 2026-04-30 13:19 |
|---|---|
| Airport | Ninoy Aquino International Airport (RPLL) |
| Time | Latitude | Longitude | Altitude | Speed | Heading |
|---|---|---|---|---|---|
| 2026-04-30 08:25 | -17.57772 | 138.13831 | 37986 ft | 430 kts | 328° |
| 2026-04-30 08:25 | -17.52320 | 138.11232 | 37989 ft | 431 kts | 328° |
| 2026-04-30 08:26 | -17.46864 | 138.08634 | 37993 ft | 430 kts | 328° |
| 2026-04-30 08:26 | -17.41450 | 138.06058 | 37991 ft | 430 kts | 328° |
| 2026-04-30 08:27 | -17.35998 | 138.03465 | 37987 ft | 431 kts | 328° |
| 2026-04-30 08:27 | -17.30538 | 138.00871 | 37984 ft | 431 kts | 329° |
| 2026-04-30 08:28 | -17.25079 | 137.98277 | 37986 ft | 431 kts | 329° |
| 2026-04-30 08:28 | -17.19614 | 137.95683 | 37987 ft | 431 kts | 329° |
| 2026-04-30 08:29 | -17.14183 | 137.93107 | 37990 ft | 432 kts | 329° |
| 2026-04-30 08:29 | -17.08716 | 137.90516 | 37987 ft | 431 kts | 329° |
| 2026-04-30 08:30 | -17.03248 | 137.87926 | 37979 ft | 431 kts | 329° |
| 2026-04-30 08:30 | -16.97775 | 137.85334 | 37990 ft | 432 kts | 329° |
| 2026-04-30 08:31 | -16.92334 | 137.82760 | 37990 ft | 432 kts | 329° |
| 2026-04-30 08:31 | -16.86856 | 137.80170 | 37981 ft | 432 kts | 329° |
| 2026-04-30 08:32 | -16.81372 | 137.77579 | 37988 ft | 433 kts | 330° |
| 2026-04-30 08:32 | -16.75881 | 137.74986 | 37988 ft | 433 kts | 330° |
| 2026-04-30 08:33 | -16.70394 | 137.72397 | 37989 ft | 433 kts | 330° |
| 2026-04-30 08:33 | -16.64937 | 137.69823 | 37984 ft | 433 kts | 330° |
| 2026-04-30 08:34 | -16.59448 | 137.67236 | 37985 ft | 433 kts | 330° |
| 2026-04-30 08:34 | -16.53958 | 137.64650 | 37984 ft | 433 kts | 330° |
| 2026-04-30 08:35 | -16.48468 | 137.62066 | 37985 ft | 433 kts | 330° |
| 2026-04-30 08:35 | -16.43011 | 137.59499 | 37987 ft | 433 kts | 330° |
| 2026-04-30 08:36 | -16.37514 | 137.56914 | 37992 ft | 434 kts | 330° |
| 2026-04-30 08:36 | -16.32007 | 137.54326 | 37989 ft | 434 kts | 330° |
| 2026-04-30 08:37 | -16.26502 | 137.51742 | 37982 ft | 434 kts | 330° |
| 2026-04-30 08:37 | -16.21035 | 137.49177 | 37979 ft | 434 kts | 330° |
| 2026-04-30 08:38 | -16.15530 | 137.46595 | 37986 ft | 434 kts | 330° |
| 2026-04-30 08:38 | -16.10021 | 137.44013 | 37986 ft | 434 kts | 330° |
| 2026-04-30 08:39 | -16.04513 | 137.41433 | 37982 ft | 434 kts | 330° |
| 2026-04-30 08:39 | -15.99043 | 137.38872 | 37980 ft | 434 kts | 330° |
| 2026-04-30 08:40 | -15.93535 | 137.36295 | 37966 ft | 434 kts | 330° |
| 2026-04-30 08:40 | -15.88027 | 137.33720 | 37968 ft | 434 kts | 330° |
| 2026-04-30 08:41 | -15.82511 | 137.31143 | 37972 ft | 435 kts | 331° |
| 2026-04-30 08:41 | -15.77026 | 137.28581 | 38025 ft | 437 kts | 331° |
| 2026-04-30 08:41 | -15.74247 | 137.27283 | 38170 ft | 438 kts | 331° |
| 2026-04-30 08:42 | -15.71463 | 137.25984 | 38381 ft | 438 kts | 331° |
| 2026-04-30 08:42 | -15.68683 | 137.24687 | 38605 ft | 438 kts | 331° |
| 2026-04-30 08:42 | -15.65909 | 137.23395 | 38812 ft | 437 kts | 331° |
| 2026-04-30 08:42 | -15.63135 | 137.22102 | 39004 ft | 436 kts | 331° |
| 2026-04-30 08:43 | -15.60367 | 137.20812 | 39177 ft | 436 kts | 331° |
| 2026-04-30 08:43 | -15.57639 | 137.19541 | 39329 ft | 436 kts | 331° |
| 2026-04-30 08:43 | -15.54871 | 137.18251 | 39461 ft | 436 kts | 331° |
| 2026-04-30 08:43 | -15.52103 | 137.16962 | 39607 ft | 437 kts | 331° |
| 2026-04-30 08:44 | -15.49332 | 137.15672 | 39777 ft | 436 kts | 331° |
| 2026-04-30 08:44 | -15.46565 | 137.14384 | 39925 ft | 436 kts | 331° |
| 2026-04-30 08:44 | -15.43789 | 137.13092 | 39971 ft | 438 kts | 331° |
| 2026-04-30 08:45 | -15.38212 | 137.10497 | 39973 ft | 440 kts | 331° |
| 2026-04-30 08:45 | -15.32631 | 137.07904 | 39975 ft | 439 kts | 331° |
| 2026-04-30 08:46 | -15.27087 | 137.05330 | 39965 ft | 439 kts | 332° |
| 2026-04-30 08:46 | -15.21501 | 137.02736 | 39971 ft | 441 kts | 332° |
| 2026-04-30 08:47 | -15.15902 | 137.00137 | 39969 ft | 441 kts | 332° |
| 2026-04-30 08:47 | -15.10298 | 136.97539 | 39970 ft | 441 kts | 332° |
| 2026-04-30 08:48 | -15.04734 | 136.94961 | 39968 ft | 441 kts | 332° |
| 2026-04-30 08:48 | -14.99100 | 136.92350 | 39957 ft | 444 kts | 332° |
| 2026-04-30 08:49 | -14.93472 | 136.89747 | 39967 ft | 443 kts | 332° |
| 2026-04-30 08:49 | -14.87849 | 136.87146 | 39971 ft | 443 kts | 332° |
| 2026-04-30 08:50 | -14.82261 | 136.84562 | 39966 ft | 443 kts | 332° |
| 2026-04-30 08:50 | -14.76633 | 136.81961 | 39967 ft | 443 kts | 332° |
| 2026-04-30 08:51 | -14.71026 | 136.79372 | 39968 ft | 443 kts | 332° |
| 2026-04-30 08:51 | -14.65379 | 136.76765 | 39964 ft | 444 kts | 332° |
| 2026-04-30 08:52 | -14.59741 | 136.74164 | 39961 ft | 444 kts | 332° |
| 2026-04-30 08:52 | -14.54134 | 136.71579 | 39960 ft | 444 kts | 332° |
| 2026-04-30 08:53 | -14.48498 | 136.68982 | 39965 ft | 444 kts | 332° |
| 2026-04-30 08:53 | -14.42855 | 136.66384 | 39963 ft | 444 kts | 332° |
| 2026-04-30 08:54 | -14.37254 | 136.63806 | 39963 ft | 444 kts | 332° |
| 2026-04-30 08:54 | -14.31609 | 136.61209 | 39961 ft | 444 kts | 332° |
| 2026-04-30 08:55 | -14.25964 | 136.58613 | 39963 ft | 444 kts | 332° |
| 2026-04-30 08:55 | -14.20318 | 136.56019 | 39968 ft | 444 kts | 332° |
| 2026-04-30 08:56 | -14.14712 | 136.53445 | 39961 ft | 444 kts | 332° |
| 2026-04-30 08:56 | -14.09064 | 136.50852 | 39957 ft | 444 kts | 332° |
| 2026-04-30 08:57 | -14.03439 | 136.48273 | 39961 ft | 442 kts | 332° |
| 2026-04-30 08:57 | -13.97818 | 136.45696 | 39960 ft | 442 kts | 333° |
| 2026-04-30 08:58 | -13.92218 | 136.43173 | 39962 ft | 442 kts | 333° |
| 2026-04-30 08:58 | -13.86569 | 136.40655 | 39958 ft | 442 kts | 333° |
| 2026-04-30 08:59 | -13.80921 | 136.38140 | 39953 ft | 442 kts | 333° |
| 2026-04-30 08:59 | -13.75276 | 136.35623 | 39957 ft | 442 kts | 333° |
| 2026-04-30 09:00 | -13.69666 | 136.33121 | 39959 ft | 442 kts | 333° |
| 2026-04-30 09:00 | -13.64019 | 136.30604 | 39957 ft | 442 kts | 333° |
| 2026-04-30 09:01 | -13.58369 | 136.28086 | 39956 ft | 442 kts | 333° |
| 2026-04-30 09:01 | -13.52720 | 136.25571 | 39950 ft | 443 kts | 333° |
| 2026-04-30 09:02 | -13.44269 | 136.21809 | 39953 ft | 444 kts | 333° |
| 2026-04-30 09:02 | -13.38601 | 136.19289 | 39952 ft | 444 kts | 333° |
| 2026-04-30 09:03 | -13.32934 | 136.16770 | 39952 ft | 444 kts | 333° |
| 2026-04-30 09:03 | -13.27303 | 136.14268 | 39955 ft | 444 kts | 333° |
| 2026-04-30 09:04 | -13.21631 | 136.11749 | 39955 ft | 444 kts | 333° |
| 2026-04-30 09:04 | -13.15959 | 136.09232 | 39955 ft | 444 kts | 333° |
| 2026-04-30 09:05 | -13.10286 | 136.06716 | 39954 ft | 444 kts | 333° |
| 2026-04-30 09:05 | -13.04649 | 136.04216 | 39955 ft | 444 kts | 333° |
| 2026-04-30 09:06 | -12.98979 | 136.01704 | 39955 ft | 444 kts | 333° |
| 2026-04-30 09:06 | -12.93304 | 135.99190 | 39952 ft | 444 kts | 334° |
| 2026-04-30 09:07 | -12.87659 | 135.96690 | 39953 ft | 445 kts | 334° |
| 2026-04-30 09:07 | -12.81972 | 135.94174 | 39952 ft | 446 kts | 334° |
| 2026-04-30 09:08 | -12.76279 | 135.91656 | 39949 ft | 446 kts | 334° |
| 2026-04-30 09:08 | -12.70585 | 135.89139 | 39947 ft | 446 kts | 334° |
| 2026-04-30 09:09 | -12.64888 | 135.86623 | 39948 ft | 446 kts | 334° |
| 2026-04-30 09:09 | -12.59234 | 135.84124 | 39944 ft | 445 kts | 334° |
| 2026-04-30 09:10 | -12.53542 | 135.81611 | 39942 ft | 446 kts | 334° |
| 2026-04-30 09:10 | -12.47842 | 135.79097 | 39942 ft | 445 kts | 334° |
| 2026-04-30 09:11 | -12.42162 | 135.76593 | 39942 ft | 444 kts | 334° |
| 2026-04-30 09:11 | -12.36532 | 135.74111 | 39937 ft | 444 kts | 335° |
| 2026-04-30 09:12 | -12.30851 | 135.71608 | 39937 ft | 444 kts | 335° |
| 2026-04-30 09:12 | -12.25177 | 135.69109 | 39932 ft | 444 kts | 335° |
| 2026-04-30 09:13 | -12.19496 | 135.66609 | 39935 ft | 444 kts | 335° |
| 2026-04-30 09:13 | -12.13854 | 135.64127 | 39930 ft | 444 kts | 335° |
| 2026-04-30 09:14 | -12.08178 | 135.61631 | 39929 ft | 444 kts | 335° |
| 2026-04-30 09:14 | -12.02489 | 135.59133 | 39930 ft | 445 kts | 335° |
| 2026-04-30 09:15 | -11.96807 | 135.56633 | 39928 ft | 445 kts | 335° |
| 2026-04-30 09:15 | -11.91147 | 135.54148 | 39925 ft | 446 kts | 335° |
| 2026-04-30 09:16 | -11.85438 | 135.51642 | 39929 ft | 446 kts | 335° |
| 2026-04-30 09:16 | -11.79735 | 135.49140 | 39929 ft | 446 kts | 336° |
| 2026-04-30 09:17 | -11.74032 | 135.46644 | 39927 ft | 446 kts | 336° |
| 2026-04-30 09:17 | -11.68376 | 135.44162 | 39923 ft | 446 kts | 336° |
| 2026-04-30 09:18 | -11.62678 | 135.41664 | 39923 ft | 446 kts | 336° |
| 2026-04-30 09:18 | -11.56982 | 135.39168 | 39922 ft | 446 kts | 336° |
| 2026-04-30 09:19 | -11.51287 | 135.36675 | 39925 ft | 445 kts | 336° |
| 2026-04-30 09:19 | -11.45595 | 135.34185 | 39926 ft | 445 kts | 336° |
| 2026-04-30 09:20 | -11.39938 | 135.31711 | 39927 ft | 445 kts | 336° |
| 2026-04-30 09:20 | -11.34248 | 135.29223 | 39918 ft | 445 kts | 336° |
| 2026-04-30 09:21 | -11.28555 | 135.26735 | 39924 ft | 445 kts | 336° |
| 2026-04-30 09:21 | -11.22867 | 135.24251 | 39922 ft | 445 kts | 335° |
| 2026-04-30 09:22 | -11.17202 | 135.21780 | 39922 ft | 446 kts | 336° |
| 2026-04-30 09:22 | -11.11494 | 135.19287 | 39923 ft | 446 kts | 335° |
| 2026-04-30 09:23 | -11.05790 | 135.16798 | 39918 ft | 446 kts | 335° |
| 2026-04-30 09:23 | -11.00081 | 135.14308 | 39920 ft | 447 kts | 336° |
| 2026-04-30 09:24 | -10.94412 | 135.11837 | 39921 ft | 447 kts | 335° |
| 2026-04-30 09:24 | -10.88685 | 135.09342 | 39920 ft | 448 kts | 335° |
| 2026-04-30 09:25 | -10.82949 | 135.06844 | 39922 ft | 449 kts | 335° |
| 2026-04-30 09:25 | -10.77211 | 135.04347 | 39922 ft | 449 kts | 335° |
| 2026-04-30 09:26 | -10.71514 | 135.01867 | 39922 ft | 448 kts | 335° |
| 2026-04-30 09:26 | -10.65774 | 134.99371 | 39919 ft | 448 kts | 336° |
| 2026-04-30 09:27 | -10.60040 | 134.96876 | 39920 ft | 448 kts | 335° |
| 2026-04-30 09:27 | -10.54314 | 134.94391 | 39921 ft | 448 kts | 336° |
| 2026-04-30 09:28 | -10.48624 | 134.91919 | 39920 ft | 448 kts | 336° |
| 2026-04-30 09:28 | -10.42900 | 134.89432 | 39922 ft | 447 kts | 336° |
| 2026-04-30 09:29 | -10.37171 | 134.86944 | 39925 ft | 448 kts | 336° |
| 2026-04-30 09:29 | -10.31447 | 134.84461 | 39922 ft | 448 kts | 336° |
| 2026-04-30 09:30 | -10.25759 | 134.81994 | 39925 ft | 447 kts | 336° |
| 2026-04-30 09:30 | -10.20031 | 134.79510 | 39922 ft | 447 kts | 336° |
| 2026-04-30 09:31 | -10.14301 | 134.77027 | 39922 ft | 448 kts | 336° |
| 2026-04-30 09:31 | -10.08566 | 134.74542 | 39920 ft | 448 kts | 336° |
| 2026-04-30 09:32 | -10.02870 | 134.72076 | 39921 ft | 448 kts | 336° |
| 2026-04-30 09:32 | -9.97128 | 134.69590 | 39916 ft | 448 kts | 336° |
| 2026-04-30 09:33 | -9.91391 | 134.67107 | 39916 ft | 449 kts | 336° |
| 2026-04-30 09:33 | -9.85642 | 134.64621 | 39918 ft | 449 kts | 336° |
| 2026-04-30 09:34 | -9.79887 | 134.62132 | 39920 ft | 449 kts | 336° |
| 2026-04-30 09:34 | -9.74174 | 134.59663 | 39920 ft | 449 kts | 336° |
| 2026-04-30 09:35 | -9.68420 | 134.57177 | 39929 ft | 450 kts | 336° |
| 2026-04-30 09:35 | -9.62663 | 134.54690 | 39927 ft | 450 kts | 336° |
| 2026-04-30 09:36 | -9.56900 | 134.52202 | 39926 ft | 450 kts | 336° |
| 2026-04-30 09:36 | -9.51167 | 134.49727 | 39914 ft | 451 kts | 336° |
| 2026-04-30 09:37 | -9.45396 | 134.47238 | 39914 ft | 451 kts | 336° |
| 2026-04-30 09:37 | -9.39628 | 134.44747 | 39920 ft | 450 kts | 336° |
| 2026-04-30 09:38 | -9.33856 | 134.42264 | 39918 ft | 451 kts | 336° |
| 2026-04-30 09:38 | -9.28123 | 134.39793 | 39918 ft | 451 kts | 336° |
| 2026-04-30 09:39 | -9.22349 | 134.37304 | 39921 ft | 451 kts | 336° |
| 2026-04-30 09:39 | -9.16572 | 134.34816 | 39916 ft | 451 kts | 336° |
| 2026-04-30 09:40 | -9.10796 | 134.32329 | 39906 ft | 451 kts | 336° |
| 2026-04-30 09:40 | -9.05014 | 134.29841 | 39919 ft | 452 kts | 336° |
| 2026-04-30 09:41 | -8.99273 | 134.27372 | 39917 ft | 452 kts | 336° |
| 2026-04-30 09:41 | -8.93492 | 134.24885 | 39916 ft | 451 kts | 336° |
| 2026-04-30 09:42 | -8.87712 | 134.22400 | 39916 ft | 451 kts | 336° |
| 2026-04-30 09:42 | -8.81934 | 134.19917 | 39914 ft | 452 kts | 336° |
| 2026-04-30 09:43 | -8.76186 | 134.17448 | 39915 ft | 452 kts | 336° |
| 2026-04-30 09:43 | -8.70402 | 134.14964 | 39913 ft | 452 kts | 336° |
| 2026-04-30 09:44 | -8.64620 | 134.12474 | 39917 ft | 452 kts | 337° |
| 2026-04-30 09:44 | -8.58876 | 134.10009 | 39913 ft | 451 kts | 337° |
| 2026-04-30 09:45 | -8.53095 | 134.07534 | 39914 ft | 451 kts | 337° |
| 2026-04-30 09:45 | -8.47311 | 134.05055 | 39911 ft | 452 kts | 337° |
| 2026-04-30 09:46 | -8.41528 | 134.02579 | 39915 ft | 451 kts | 337° |
| 2026-04-30 09:46 | -8.35743 | 134.00105 | 39914 ft | 452 kts | 338° |
| 2026-04-30 09:47 | -8.29991 | 133.97638 | 39916 ft | 452 kts | 338° |
| 2026-04-30 09:47 | -8.24205 | 133.95155 | 39917 ft | 452 kts | 337° |
| 2026-04-30 09:48 | -8.18411 | 133.92672 | 39915 ft | 452 kts | 338° |
| 2026-04-30 09:48 | -8.12619 | 133.90188 | 39902 ft | 452 kts | 338° |
| 2026-04-30 09:49 | -8.06859 | 133.87725 | 39915 ft | 453 kts | 338° |
| 2026-04-30 09:49 | -8.01058 | 133.85246 | 39917 ft | 453 kts | 338° |
| 2026-04-30 09:50 | -7.95257 | 133.82766 | 39912 ft | 453 kts | 338° |
| 2026-04-30 09:50 | -7.89451 | 133.80284 | 39913 ft | 454 kts | 338° |
| 2026-04-30 09:51 | -7.83682 | 133.77818 | 39917 ft | 454 kts | 338° |
| 2026-04-30 09:51 | -7.77869 | 133.75334 | 39908 ft | 453 kts | 338° |
| 2026-04-30 09:52 | -7.72056 | 133.72851 | 39909 ft | 454 kts | 338° |
| 2026-04-30 09:52 | -7.66243 | 133.70369 | 39913 ft | 454 kts | 338° |
| 2026-04-30 09:53 | -7.60471 | 133.67905 | 39914 ft | 453 kts | 338° |
| 2026-04-30 09:53 | -7.54661 | 133.65425 | 39910 ft | 454 kts | 338° |
| 2026-04-30 09:54 | -7.48847 | 133.62945 | 39908 ft | 454 kts | 338° |
| 2026-04-30 09:54 | -7.43035 | 133.60467 | 39908 ft | 454 kts | 338° |
| 2026-04-30 09:55 | -7.37495 | 133.57512 | 39911 ft | 454 kts | 329° |
| 2026-04-30 09:55 | -7.32150 | 133.54128 | 39910 ft | 454 kts | 328° |
| 2026-04-30 09:56 | -7.26845 | 133.50664 | 39911 ft | 454 kts | 328° |
| 2026-04-30 09:56 | -7.21546 | 133.47200 | 39908 ft | 454 kts | 328° |
| 2026-04-30 09:57 | -7.16271 | 133.43769 | 39908 ft | 454 kts | 328° |
| 2026-04-30 09:57 | -7.10957 | 133.40321 | 39909 ft | 454 kts | 328° |
| 2026-04-30 09:58 | -7.05644 | 133.36876 | 39913 ft | 454 kts | 328° |
| 2026-04-30 09:58 | -7.00338 | 133.33437 | 39914 ft | 454 kts | 328° |
| 2026-04-30 09:59 | -6.89753 | 133.26578 | 39910 ft | 455 kts | 328° |
| 2026-04-30 10:00 | -6.81773 | 133.21409 | 39913 ft | 455 kts | 328° |
| 2026-04-30 10:01 | -6.73780 | 133.16234 | 39911 ft | 455 kts | 328° |
| 2026-04-30 10:02 | -6.65789 | 133.11061 | 39907 ft | 455 kts | 328° |
| 2026-04-30 10:02 | -6.60499 | 133.07639 | 39910 ft | 455 kts | 328° |
| 2026-04-30 10:03 | -6.55161 | 133.04186 | 39910 ft | 456 kts | 328° |
| 2026-04-30 10:03 | -6.49830 | 133.00739 | 39914 ft | 455 kts | 328° |
| 2026-04-30 10:04 | -6.44495 | 132.97298 | 39909 ft | 455 kts | 328° |
| 2026-04-30 10:04 | -6.39178 | 132.93858 | 39910 ft | 454 kts | 328° |
| 2026-04-30 10:05 | -6.33886 | 132.90432 | 39909 ft | 456 kts | 328° |
| 2026-04-30 10:05 | -6.28545 | 132.86981 | 39913 ft | 457 kts | 328° |
| 2026-04-30 10:06 | -6.23198 | 132.83529 | 39910 ft | 457 kts | 328° |
| 2026-04-30 10:06 | -6.17856 | 132.80080 | 39910 ft | 457 kts | 328° |
| 2026-04-30 10:07 | -6.12544 | 132.76651 | 39907 ft | 457 kts | 328° |
| 2026-04-30 10:07 | -6.07187 | 132.73191 | 39906 ft | 458 kts | 328° |
| 2026-04-30 10:08 | -6.01816 | 132.69728 | 39909 ft | 459 kts | 328° |
| 2026-04-30 10:08 | -5.96449 | 132.66267 | 39910 ft | 459 kts | 328° |
| 2026-04-30 10:09 | -5.91078 | 132.62803 | 39907 ft | 459 kts | 328° |
| 2026-04-30 10:09 | -5.85741 | 132.59361 | 39908 ft | 459 kts | 328° |
| 2026-04-30 10:10 | -5.80359 | 132.55892 | 39907 ft | 461 kts | 328° |
| 2026-04-30 10:10 | -5.74961 | 132.52414 | 39904 ft | 461 kts | 328° |
| 2026-04-30 10:11 | -5.69564 | 132.48936 | 39902 ft | 461 kts | 328° |
| 2026-04-30 10:11 | -5.64208 | 132.45485 | 39903 ft | 461 kts | 328° |
| 2026-04-30 10:12 | -5.58808 | 132.42008 | 39903 ft | 461 kts | 328° |
| 2026-04-30 10:12 | -5.53405 | 132.38526 | 39900 ft | 462 kts | 328° |
| 2026-04-30 10:13 | -5.47982 | 132.35030 | 39901 ft | 464 kts | 328° |
| 2026-04-30 10:13 | -5.42552 | 132.31538 | 39900 ft | 464 kts | 328° |
| 2026-04-30 10:14 | -5.37156 | 132.28070 | 39903 ft | 464 kts | 328° |
| 2026-04-30 10:14 | -5.29007 | 132.22829 | 39900 ft | 464 kts | 328° |
| 2026-04-30 10:15 | -5.23577 | 132.19336 | 39906 ft | 464 kts | 328° |
| 2026-04-30 10:15 | -5.18143 | 132.15842 | 39890 ft | 465 kts | 328° |
| 2026-04-30 10:16 | -5.12731 | 132.12363 | 39904 ft | 465 kts | 328° |
| 2026-04-30 10:17 | -5.04559 | 132.07110 | 39898 ft | 465 kts | 328° |
| 2026-04-30 10:17 | -4.96377 | 132.01849 | 39899 ft | 466 kts | 328° |
| 2026-04-30 10:18 | -4.90912 | 131.98341 | 39903 ft | 466 kts | 328° |
| 2026-04-30 10:19 | -4.82759 | 131.93107 | 39891 ft | 466 kts | 328° |
| 2026-04-30 10:19 | -4.77300 | 131.89603 | 39902 ft | 466 kts | 329° |
| 2026-04-30 10:20 | -4.71831 | 131.86092 | 39905 ft | 467 kts | 329° |
| 2026-04-30 10:20 | -4.63671 | 131.80855 | 39902 ft | 467 kts | 329° |
| 2026-04-30 10:21 | -4.58205 | 131.77348 | 39906 ft | 467 kts | 329° |
| 2026-04-30 10:21 | -4.52738 | 131.73841 | 39906 ft | 466 kts | 329° |
| 2026-04-30 10:22 | -4.47278 | 131.70339 | 39892 ft | 465 kts | 329° |
| 2026-04-30 10:22 | -4.41824 | 131.66842 | 39901 ft | 465 kts | 329° |
| 2026-04-30 10:23 | -4.36408 | 131.63369 | 39909 ft | 465 kts | 329° |
| 2026-04-30 10:23 | -4.30953 | 131.59873 | 39894 ft | 465 kts | 329° |
| 2026-04-30 10:24 | -4.25503 | 131.56380 | 39910 ft | 465 kts | 329° |
| 2026-04-30 10:24 | -4.20055 | 131.52887 | 39892 ft | 464 kts | 329° |
| 2026-04-30 10:25 | -4.14621 | 131.49405 | 39892 ft | 464 kts | 329° |
| 2026-04-30 10:25 | -4.09188 | 131.45926 | 39907 ft | 464 kts | 329° |
| 2026-04-30 10:26 | -4.03788 | 131.42468 | 39889 ft | 464 kts | 329° |
| 2026-04-30 10:26 | -3.98354 | 131.38987 | 39892 ft | 464 kts | 329° |
| 2026-04-30 10:27 | -3.92926 | 131.35512 | 39909 ft | 463 kts | 329° |
| 2026-04-30 10:27 | -3.87504 | 131.32041 | 39894 ft | 462 kts | 329° |
| 2026-04-30 10:28 | -3.82081 | 131.28570 | 39896 ft | 463 kts | 329° |
| 2026-04-30 10:28 | -3.76693 | 131.25121 | 39894 ft | 462 kts | 329° |
| 2026-04-30 10:29 | -3.71272 | 131.21653 | 39896 ft | 463 kts | 329° |
| 2026-04-30 10:29 | -3.65848 | 131.18182 | 39901 ft | 463 kts | 329° |
| 2026-04-30 10:30 | -3.60415 | 131.14707 | 39914 ft | 463 kts | 329° |
| 2026-04-30 10:30 | -3.55020 | 131.11256 | 39896 ft | 463 kts | 329° |
| 2026-04-30 10:31 | -3.49593 | 131.07785 | 39910 ft | 463 kts | 329° |
| 2026-04-30 10:31 | -3.44162 | 131.04313 | 39893 ft | 463 kts | 329° |
| 2026-04-30 10:32 | -3.39647 | 131.01426 | 39897 ft | 464 kts | 329° |
| 2026-04-30 10:32 | -3.34211 | 130.97951 | 39897 ft | 464 kts | 329° |
| 2026-04-30 10:33 | -3.28773 | 130.94475 | 39907 ft | 464 kts | 329° |
| 2026-04-30 10:33 | -3.23374 | 130.91024 | 39906 ft | 464 kts | 329° |
| 2026-04-30 10:34 | -3.17935 | 130.87548 | 39899 ft | 464 kts | 329° |
| 2026-04-30 10:34 | -3.12497 | 130.84074 | 39898 ft | 464 kts | 329° |
| 2026-04-30 10:35 | -3.07045 | 130.80591 | 39900 ft | 465 kts | 329° |
| 2026-04-30 10:35 | -3.01626 | 130.77130 | 39901 ft | 465 kts | 329° |
| 2026-04-30 10:36 | -2.96172 | 130.73646 | 39900 ft | 465 kts | 329° |
| 2026-04-30 10:36 | -2.90722 | 130.70165 | 39901 ft | 465 kts | 329° |
| 2026-04-30 10:37 | -2.85262 | 130.66678 | 39899 ft | 466 kts | 329° |
| 2026-04-30 10:37 | -2.78904 | 130.62574 | 39897 ft | 469 kts | 329° |
| 2026-04-30 10:38 | -2.74352 | 130.59622 | 39896 ft | 469 kts | 329° |
| 2026-04-30 10:38 | -2.68873 | 130.56070 | 39897 ft | 469 kts | 329° |
| 2026-04-30 10:39 | -2.63399 | 130.52525 | 39895 ft | 469 kts | 329° |
| 2026-04-30 10:39 | -2.57922 | 130.48980 | 39895 ft | 469 kts | 329° |
| 2026-04-30 10:40 | -2.52479 | 130.45458 | 39897 ft | 469 kts | 329° |
| 2026-04-30 10:40 | -2.47007 | 130.41917 | 39896 ft | 468 kts | 329° |
| 2026-04-30 10:41 | -2.41538 | 130.38378 | 39899 ft | 468 kts | 329° |
| 2026-04-30 10:41 | -2.36068 | 130.34840 | 39902 ft | 468 kts | 329° |
| 2026-04-30 10:42 | -2.30599 | 130.31302 | 39896 ft | 469 kts | 328° |
| 2026-04-30 10:42 | -2.25152 | 130.27778 | 39899 ft | 470 kts | 328° |
| 2026-04-30 10:43 | -2.19662 | 130.24228 | 39896 ft | 470 kts | 328° |
| 2026-04-30 10:43 | -2.14184 | 130.20685 | 39898 ft | 469 kts | 328° |
| 2026-04-30 10:44 | -2.08708 | 130.17143 | 39900 ft | 469 kts | 328° |
| 2026-04-30 10:44 | -2.03231 | 130.13602 | 39900 ft | 469 kts | 329° |
| 2026-04-30 10:45 | -1.97747 | 130.10056 | 39904 ft | 470 kts | 329° |
| 2026-04-30 10:45 | -1.92249 | 130.06502 | 39903 ft | 470 kts | 329° |
| 2026-04-30 10:46 | -1.86794 | 130.02976 | 39897 ft | 470 kts | 329° |
| 2026-04-30 10:46 | -1.81298 | 129.99423 | 39898 ft | 470 kts | 328° |
| 2026-04-30 10:47 | -1.75808 | 129.95874 | 39900 ft | 470 kts | 328° |
| 2026-04-30 10:47 | -1.70314 | 129.92322 | 39897 ft | 471 kts | 328° |
| 2026-04-30 10:48 | -1.64845 | 129.88789 | 39898 ft | 471 kts | 328° |
| 2026-04-30 10:48 | -1.59339 | 129.85230 | 39894 ft | 471 kts | 328° |
| 2026-04-30 10:49 | -1.53832 | 129.81672 | 39898 ft | 471 kts | 328° |
| 2026-04-30 10:49 | -1.48326 | 129.78114 | 39893 ft | 471 kts | 328° |
| 2026-04-30 10:50 | -1.42863 | 129.74584 | 39895 ft | 470 kts | 328° |
| 2026-04-30 10:50 | -1.37373 | 129.71037 | 39894 ft | 470 kts | 328° |
| 2026-04-30 10:51 | -1.31882 | 129.67490 | 39897 ft | 470 kts | 328° |
| 2026-04-30 10:51 | -1.26389 | 129.63941 | 39894 ft | 470 kts | 328° |
| 2026-04-30 10:52 | -1.20897 | 129.60393 | 39893 ft | 470 kts | 328° |
| 2026-04-30 10:52 | -1.15441 | 129.56869 | 39896 ft | 470 kts | 328° |
| 2026-04-30 10:53 | -1.09948 | 129.53321 | 39896 ft | 470 kts | 328° |
| 2026-04-30 10:53 | -1.04452 | 129.49771 | 39893 ft | 470 kts | 328° |
| 2026-04-30 10:54 | -0.98956 | 129.46222 | 39894 ft | 470 kts | 328° |
| 2026-04-30 10:54 | -0.93498 | 129.42697 | 39892 ft | 470 kts | 328° |
| 2026-04-30 10:55 | -0.88003 | 129.39148 | 39889 ft | 470 kts | 328° |
| 2026-04-30 10:55 | -0.82506 | 129.35598 | 39892 ft | 470 kts | 328° |
| 2026-04-30 10:56 | -0.77016 | 129.32054 | 39894 ft | 470 kts | 328° |
| 2026-04-30 10:56 | -0.71515 | 129.28510 | 39894 ft | 471 kts | 328° |
| 2026-04-30 10:57 | -0.66051 | 129.24981 | 39895 ft | 471 kts | 328° |
| 2026-04-30 10:57 | -0.60553 | 129.21425 | 39894 ft | 471 kts | 328° |
| 2026-04-30 10:58 | -0.55056 | 129.17873 | 39893 ft | 470 kts | 328° |
| 2026-04-30 10:58 | -0.49566 | 129.14328 | 39891 ft | 469 kts | 328° |
| 2026-04-30 10:59 | -0.44085 | 129.10786 | 39891 ft | 470 kts | 328° |
| 2026-04-30 10:59 | -0.38624 | 129.07257 | 39892 ft | 471 kts | 328° |
| 2026-04-30 11:00 | -0.33113 | 129.03704 | 39895 ft | 471 kts | 328° |
| 2026-04-30 11:00 | -0.27604 | 129.00148 | 39895 ft | 472 kts | 328° |
| 2026-04-30 11:01 | -0.22074 | 128.96576 | 39893 ft | 474 kts | 328° |
| 2026-04-30 11:01 | -0.16531 | 128.93000 | 39889 ft | 474 kts | 328° |
| 2026-04-30 11:02 | -0.10988 | 128.89422 | 39891 ft | 474 kts | 328° |
| 2026-04-30 11:02 | -0.05483 | 128.85867 | 39888 ft | 475 kts | 328° |
| 2026-04-30 11:03 | 0.00066 | 128.82284 | 39878 ft | 475 kts | 328° |
| 2026-04-30 11:04 | 0.08354 | 128.76937 | 39885 ft | 470 kts | 328° |
| 2026-04-30 11:04 | 0.13841 | 128.73391 | 39886 ft | 469 kts | 328° |
| 2026-04-30 11:05 | 0.19290 | 128.69872 | 39899 ft | 469 kts | 328° |
| 2026-04-30 11:05 | 0.24777 | 128.66330 | 39883 ft | 470 kts | 328° |
| 2026-04-30 11:06 | 0.30262 | 128.62789 | 39900 ft | 470 kts | 328° |
| 2026-04-30 11:06 | 0.35713 | 128.59269 | 39884 ft | 470 kts | 328° |
| 2026-04-30 11:07 | 0.41199 | 128.55727 | 39897 ft | 470 kts | 328° |
| 2026-04-30 11:07 | 0.46687 | 128.52184 | 39886 ft | 470 kts | 328° |
| 2026-04-30 11:08 | 0.52175 | 128.48641 | 39891 ft | 470 kts | 328° |
| 2026-04-30 11:08 | 0.57660 | 128.45099 | 39905 ft | 469 kts | 328° |
| 2026-04-30 11:09 | 0.63111 | 128.41579 | 39890 ft | 470 kts | 328° |
| 2026-04-30 11:09 | 0.68617 | 128.38024 | 39908 ft | 472 kts | 328° |
| 2026-04-30 11:10 | 0.74128 | 128.34466 | 39896 ft | 472 kts | 328° |
| 2026-04-30 11:10 | 0.79644 | 128.30904 | 39908 ft | 472 kts | 328° |
| 2026-04-30 11:11 | 0.85117 | 128.27369 | 39903 ft | 472 kts | 328° |
| 2026-04-30 11:11 | 0.90631 | 128.23808 | 39919 ft | 472 kts | 329° |
| 2026-04-30 11:12 | 0.96148 | 128.20246 | 39902 ft | 473 kts | 329° |
| 2026-04-30 11:12 | 1.01673 | 128.16677 | 39916 ft | 473 kts | 329° |
| 2026-04-30 11:13 | 1.07199 | 128.13108 | 39903 ft | 473 kts | 329° |
| 2026-04-30 11:13 | 1.12687 | 128.09563 | 39894 ft | 473 kts | 329° |
| 2026-04-30 11:14 | 1.18210 | 128.05995 | 39913 ft | 473 kts | 329° |
| 2026-04-30 11:14 | 1.23735 | 128.02427 | 39894 ft | 473 kts | 329° |
| 2026-04-30 11:15 | 1.29252 | 127.98862 | 39903 ft | 472 kts | 329° |
| 2026-04-30 11:15 | 1.34776 | 127.95294 | 39892 ft | 472 kts | 329° |
| 2026-04-30 11:16 | 1.40255 | 127.91754 | 39903 ft | 472 kts | 328° |
| 2026-04-30 11:16 | 1.45772 | 127.88189 | 39905 ft | 472 kts | 328° |
| 2026-04-30 11:17 | 1.51290 | 127.84624 | 39890 ft | 472 kts | 329° |
| 2026-04-30 11:17 | 1.56818 | 127.81052 | 39911 ft | 474 kts | 329° |
| 2026-04-30 11:18 | 1.62318 | 127.77498 | 39909 ft | 474 kts | 329° |
| 2026-04-30 11:18 | 1.70630 | 127.72126 | 39889 ft | 474 kts | 329° |
| 2026-04-30 11:19 | 1.76173 | 127.68543 | 39905 ft | 474 kts | 329° |
| 2026-04-30 11:19 | 1.81719 | 127.64959 | 39890 ft | 474 kts | 329° |
| 2026-04-30 11:20 | 1.87265 | 127.61374 | 39902 ft | 475 kts | 329° |
| 2026-04-30 11:20 | 1.92787 | 127.57804 | 39900 ft | 476 kts | 329° |
| 2026-04-30 11:21 | 1.98352 | 127.54211 | 39893 ft | 476 kts | 329° |
| 2026-04-30 11:21 | 2.03934 | 127.50664 | 39891 ft | 476 kts | 329° |
| 2026-04-30 11:22 | 2.09529 | 127.47137 | 39889 ft | 476 kts | 329° |
| 2026-04-30 11:22 | 2.15087 | 127.43630 | 39888 ft | 476 kts | 329° |
| 2026-04-30 11:23 | 2.20683 | 127.40095 | 39890 ft | 476 kts | 329° |
| 2026-04-30 11:24 | 2.29068 | 127.34793 | 39886 ft | 476 kts | 329° |
| 2026-04-30 11:24 | 2.34664 | 127.31254 | 39889 ft | 476 kts | 329° |
| 2026-04-30 11:25 | 2.43016 | 127.25971 | 39891 ft | 476 kts | 329° |
| 2026-04-30 11:26 | 2.54193 | 127.18901 | 39890 ft | 475 kts | 329° |
| 2026-04-30 11:26 | 2.59775 | 127.15369 | 39890 ft | 475 kts | 329° |
| 2026-04-30 11:27 | 2.65360 | 127.11835 | 39892 ft | 475 kts | 329° |
| 2026-04-30 11:27 | 2.70906 | 127.08325 | 39894 ft | 475 kts | 329° |
| 2026-04-30 11:28 | 2.79280 | 127.03026 | 39889 ft | 475 kts | 329° |
| 2026-04-30 11:29 | 2.84858 | 126.99494 | 39888 ft | 474 kts | 329° |
| 2026-04-30 11:29 | 2.93225 | 126.94198 | 39891 ft | 474 kts | 329° |
| 2026-04-30 11:30 | 3.01547 | 126.88928 | 39894 ft | 474 kts | 329° |
| 2026-04-30 11:31 | 3.07119 | 126.85399 | 39891 ft | 474 kts | 329° |
| 2026-04-30 11:31 | 3.12687 | 126.81873 | 39892 ft | 474 kts | 329° |
| 2026-04-30 11:32 | 3.18257 | 126.78345 | 39888 ft | 474 kts | 329° |
| 2026-04-30 11:32 | 3.23829 | 126.74814 | 39892 ft | 474 kts | 329° |
| 2026-04-30 11:33 | 3.32141 | 126.69548 | 39891 ft | 473 kts | 329° |
| 2026-04-30 11:33 | 3.37699 | 126.66025 | 39889 ft | 473 kts | 329° |
| 2026-04-30 11:34 | 3.43262 | 126.62499 | 39889 ft | 473 kts | 329° |
| 2026-04-30 11:34 | 3.48824 | 126.58973 | 39893 ft | 473 kts | 329° |
| 2026-04-30 11:35 | 3.54351 | 126.55469 | 39892 ft | 473 kts | 329° |
| 2026-04-30 11:35 | 3.59909 | 126.51945 | 39893 ft | 473 kts | 329° |
| 2026-04-30 11:36 | 3.65472 | 126.48417 | 39893 ft | 473 kts | 329° |
| 2026-04-30 11:36 | 3.71023 | 126.44896 | 39893 ft | 472 kts | 329° |
| 2026-04-30 11:37 | 3.76566 | 126.41379 | 39892 ft | 472 kts | 329° |
| 2026-04-30 11:37 | 3.82071 | 126.37886 | 39894 ft | 472 kts | 329° |
| 2026-04-30 11:38 | 3.87613 | 126.34370 | 39892 ft | 472 kts | 329° |
| 2026-04-30 11:38 | 3.93158 | 126.30851 | 39893 ft | 472 kts | 329° |
| 2026-04-30 11:39 | 3.98699 | 126.27334 | 39891 ft | 472 kts | 329° |
| 2026-04-30 11:39 | 4.04228 | 126.23793 | 39891 ft | 472 kts | 328° |
| 2026-04-30 11:40 | 4.09700 | 126.20252 | 39891 ft | 471 kts | 328° |
| 2026-04-30 11:40 | 4.15197 | 126.16693 | 39894 ft | 471 kts | 328° |
| 2026-04-30 11:41 | 4.20698 | 126.13136 | 39888 ft | 471 kts | 328° |
| 2026-04-30 11:41 | 4.26202 | 126.09578 | 39892 ft | 471 kts | 328° |
| 2026-04-30 11:42 | 4.31666 | 126.06046 | 39890 ft | 471 kts | 328° |
| 2026-04-30 11:42 | 4.37166 | 126.02491 | 39895 ft | 471 kts | 328° |
| 2026-04-30 11:43 | 4.42676 | 125.98927 | 39897 ft | 471 kts | 328° |
| 2026-04-30 11:43 | 4.48183 | 125.95366 | 39895 ft | 471 kts | 328° |
| 2026-04-30 11:44 | 4.53687 | 125.91805 | 39892 ft | 471 kts | 328° |
| 2026-04-30 11:44 | 4.59156 | 125.88266 | 39893 ft | 471 kts | 328° |
| 2026-04-30 11:45 | 4.64663 | 125.84703 | 39897 ft | 471 kts | 328° |
| 2026-04-30 11:45 | 4.70167 | 125.81139 | 39897 ft | 471 kts | 328° |
| 2026-04-30 11:46 | 4.75674 | 125.77573 | 39895 ft | 471 kts | 328° |
| 2026-04-30 11:46 | 4.81140 | 125.74033 | 39898 ft | 471 kts | 328° |
| 2026-04-30 11:47 | 4.86643 | 125.70469 | 39899 ft | 470 kts | 328° |
| 2026-04-30 11:47 | 4.92141 | 125.66908 | 39897 ft | 470 kts | 328° |
| 2026-04-30 11:48 | 4.97633 | 125.63349 | 39903 ft | 470 kts | 329° |
| 2026-04-30 11:48 | 5.03128 | 125.59788 | 39899 ft | 470 kts | 329° |
| 2026-04-30 11:49 | 5.08582 | 125.56253 | 39898 ft | 470 kts | 329° |
| 2026-04-30 11:49 | 5.14077 | 125.52691 | 39899 ft | 470 kts | 329° |
| 2026-04-30 11:50 | 5.19567 | 125.49131 | 39901 ft | 470 kts | 329° |
| 2026-04-30 11:50 | 5.25023 | 125.45592 | 39899 ft | 470 kts | 329° |
| 2026-04-30 11:51 | 5.30512 | 125.42032 | 39900 ft | 470 kts | 329° |
| 2026-04-30 11:51 | 5.36006 | 125.38467 | 39903 ft | 471 kts | 329° |
| 2026-04-30 11:52 | 5.41502 | 125.34900 | 39905 ft | 471 kts | 329° |
| 2026-04-30 11:52 | 5.46966 | 125.31353 | 39900 ft | 471 kts | 329° |
| 2026-04-30 11:53 | 5.52463 | 125.27784 | 39905 ft | 471 kts | 329° |
| 2026-04-30 11:53 | 5.57959 | 125.24215 | 39905 ft | 471 kts | 329° |
| 2026-04-30 11:54 | 5.63460 | 125.20642 | 39913 ft | 471 kts | 328° |
| 2026-04-30 11:54 | 5.68958 | 125.17070 | 39914 ft | 471 kts | 328° |
| 2026-04-30 11:55 | 5.74413 | 125.13525 | 39919 ft | 471 kts | 328° |
| 2026-04-30 11:55 | 5.79913 | 125.09954 | 39915 ft | 471 kts | 328° |
| 2026-04-30 11:56 | 5.85412 | 125.06386 | 39918 ft | 471 kts | 328° |
| 2026-04-30 11:56 | 5.90910 | 125.02818 | 39933 ft | 471 kts | 328° |
| 2026-04-30 11:57 | 5.96369 | 124.99273 | 39932 ft | 470 kts | 329° |
| 2026-04-30 11:57 | 6.01856 | 124.95709 | 39932 ft | 469 kts | 328° |
| 2026-04-30 11:58 | 6.07335 | 124.92150 | 39940 ft | 469 kts | 328° |
| 2026-04-30 11:58 | 6.12814 | 124.88592 | 39942 ft | 469 kts | 328° |
| 2026-04-30 11:59 | 6.18254 | 124.85057 | 39946 ft | 469 kts | 328° |
| 2026-04-30 11:59 | 6.23733 | 124.81495 | 39943 ft | 469 kts | 328° |
| 2026-04-30 12:00 | 6.29208 | 124.77928 | 39941 ft | 469 kts | 328° |
| 2026-04-30 12:00 | 6.34696 | 124.74358 | 39942 ft | 470 kts | 328° |
| 2026-04-30 12:01 | 6.40192 | 124.70790 | 39942 ft | 470 kts | 328° |
| 2026-04-30 12:01 | 6.45643 | 124.67248 | 39937 ft | 469 kts | 328° |
| 2026-04-30 12:02 | 6.51123 | 124.63684 | 39926 ft | 469 kts | 328° |
| 2026-04-30 12:02 | 6.56604 | 124.60118 | 39939 ft | 469 kts | 328° |
| 2026-04-30 12:03 | 6.64824 | 124.54768 | 39925 ft | 469 kts | 328° |
| 2026-04-30 12:04 | 6.70272 | 124.51221 | 39935 ft | 469 kts | 328° |
| 2026-04-30 12:04 | 6.75754 | 124.47651 | 39930 ft | 469 kts | 328° |
| 2026-04-30 12:05 | 6.81234 | 124.44081 | 39920 ft | 470 kts | 328° |
| 2026-04-30 12:05 | 6.86722 | 124.40505 | 39927 ft | 470 kts | 328° |
| 2026-04-30 12:06 | 6.92170 | 124.36954 | 39915 ft | 470 kts | 328° |
| 2026-04-30 12:06 | 6.97665 | 124.33371 | 39914 ft | 471 kts | 328° |
| 2026-04-30 12:07 | 7.03164 | 124.29786 | 39922 ft | 471 kts | 328° |
| 2026-04-30 12:07 | 7.08669 | 124.26195 | 39912 ft | 471 kts | 328° |
| 2026-04-30 12:08 | 7.14131 | 124.22631 | 39916 ft | 471 kts | 328° |
| 2026-04-30 12:08 | 7.19874 | 124.19492 | 39915 ft | 470 kts | 336° |
| 2026-04-30 12:09 | 7.25789 | 124.16688 | 39910 ft | 471 kts | 337° |
| 2026-04-30 12:09 | 7.31757 | 124.13938 | 39913 ft | 472 kts | 337° |
| 2026-04-30 12:10 | 7.37734 | 124.11185 | 39917 ft | 472 kts | 337° |
| 2026-04-30 12:10 | 7.43666 | 124.08440 | 39919 ft | 472 kts | 337° |
| 2026-04-30 12:11 | 7.49640 | 124.05668 | 39915 ft | 472 kts | 337° |
| 2026-04-30 12:11 | 7.55608 | 124.02896 | 39925 ft | 472 kts | 337° |
| 2026-04-30 12:12 | 7.61579 | 124.00124 | 39921 ft | 472 kts | 336° |
| 2026-04-30 12:12 | 7.67509 | 123.97369 | 39919 ft | 472 kts | 336° |
| 2026-04-30 12:13 | 7.73475 | 123.94597 | 39925 ft | 472 kts | 337° |
| 2026-04-30 12:13 | 7.79448 | 123.91821 | 39927 ft | 473 kts | 337° |
| 2026-04-30 12:14 | 7.85425 | 123.89042 | 39925 ft | 473 kts | 336° |
| 2026-04-30 12:14 | 7.91366 | 123.86278 | 39925 ft | 473 kts | 337° |
| 2026-04-30 12:15 | 7.97338 | 123.83500 | 39931 ft | 472 kts | 336° |
| 2026-04-30 12:15 | 8.03304 | 123.80724 | 39933 ft | 472 kts | 336° |
| 2026-04-30 12:16 | 8.09274 | 123.77945 | 39939 ft | 472 kts | 336° |
| 2026-04-30 12:16 | 8.15202 | 123.75185 | 39939 ft | 472 kts | 336° |
| 2026-04-30 12:17 | 8.24154 | 123.71015 | 39939 ft | 472 kts | 337° |
| 2026-04-30 12:17 | 8.30118 | 123.68235 | 39946 ft | 472 kts | 337° |
| 2026-04-30 12:18 | 8.36040 | 123.65475 | 39937 ft | 472 kts | 337° |
| 2026-04-30 12:18 | 8.42005 | 123.62693 | 39941 ft | 472 kts | 337° |
| 2026-04-30 12:19 | 8.47975 | 123.59908 | 39934 ft | 472 kts | 337° |
| 2026-04-30 12:19 | 8.53940 | 123.57124 | 39939 ft | 472 kts | 337° |
| 2026-04-30 12:20 | 8.59875 | 123.54353 | 39924 ft | 473 kts | 337° |
| 2026-04-30 12:20 | 8.65855 | 123.51561 | 39926 ft | 474 kts | 337° |
| 2026-04-30 12:21 | 8.71843 | 123.48763 | 39929 ft | 474 kts | 337° |
| 2026-04-30 12:21 | 8.77827 | 123.45967 | 39918 ft | 474 kts | 337° |
| 2026-04-30 12:22 | 8.83768 | 123.43189 | 39921 ft | 474 kts | 337° |
| 2026-04-30 12:22 | 8.89756 | 123.40388 | 39924 ft | 475 kts | 336° |
| 2026-04-30 12:23 | 8.95777 | 123.37571 | 39921 ft | 477 kts | 336° |
| 2026-04-30 12:23 | 9.01806 | 123.34749 | 39908 ft | 478 kts | 336° |
| 2026-04-30 12:24 | 9.07798 | 123.31944 | 39910 ft | 478 kts | 336° |
| 2026-04-30 12:24 | 9.13828 | 123.29120 | 39894 ft | 478 kts | 336° |
| 2026-04-30 12:25 | 9.19859 | 123.26295 | 39912 ft | 478 kts | 336° |
| 2026-04-30 12:25 | 9.25893 | 123.23464 | 39917 ft | 478 kts | 336° |
| 2026-04-30 12:26 | 9.31891 | 123.20652 | 39917 ft | 478 kts | 336° |
| 2026-04-30 12:26 | 9.37932 | 123.17822 | 39912 ft | 478 kts | 336° |
| 2026-04-30 12:27 | 9.43968 | 123.14992 | 39909 ft | 478 kts | 336° |
| 2026-04-30 12:27 | 9.50010 | 123.12157 | 39908 ft | 479 kts | 336° |
| 2026-04-30 12:28 | 9.56021 | 123.09336 | 39909 ft | 480 kts | 336° |
| 2026-04-30 12:28 | 9.62079 | 123.06491 | 39912 ft | 480 kts | 336° |
| 2026-04-30 12:29 | 9.68129 | 123.03649 | 39907 ft | 479 kts | 336° |
| 2026-04-30 12:29 | 9.74181 | 123.00805 | 39912 ft | 480 kts | 336° |
| 2026-04-30 12:30 | 9.80197 | 122.97977 | 39914 ft | 480 kts | 336° |
| 2026-04-30 12:30 | 9.86252 | 122.95129 | 39915 ft | 480 kts | 336° |
| 2026-04-30 12:31 | 9.92301 | 122.92283 | 39916 ft | 479 kts | 336° |
| 2026-04-30 12:31 | 9.98357 | 122.89433 | 39912 ft | 480 kts | 336° |
| 2026-04-30 12:32 | 10.04378 | 122.86598 | 39914 ft | 480 kts | 336° |
| 2026-04-30 12:32 | 10.10438 | 122.83744 | 39917 ft | 480 kts | 336° |
| 2026-04-30 12:33 | 10.16498 | 122.80889 | 39917 ft | 480 kts | 336° |
| 2026-04-30 12:33 | 10.22543 | 122.78039 | 39913 ft | 478 kts | 336° |
| 2026-04-30 12:34 | 10.28567 | 122.75198 | 39919 ft | 476 kts | 336° |
| 2026-04-30 12:34 | 10.34534 | 122.72383 | 39911 ft | 476 kts | 336° |
| 2026-04-30 12:35 | 10.40545 | 122.69547 | 39913 ft | 476 kts | 336° |
| 2026-04-30 12:35 | 10.46554 | 122.66709 | 39919 ft | 476 kts | 336° |
| 2026-04-30 12:36 | 10.52564 | 122.63870 | 39917 ft | 476 kts | 336° |
| 2026-04-30 12:36 | 10.58575 | 122.61029 | 39927 ft | 476 kts | 336° |
| 2026-04-30 12:37 | 10.64548 | 122.58205 | 39925 ft | 477 kts | 336° |
| 2026-04-30 12:37 | 10.70588 | 122.55348 | 39932 ft | 479 kts | 335° |
| 2026-04-30 12:38 | 10.76626 | 122.52490 | 39934 ft | 478 kts | 335° |
| 2026-04-30 12:38 | 10.82601 | 122.49654 | 39948 ft | 476 kts | 336° |
| 2026-04-30 12:39 | 10.88659 | 122.46939 | 39946 ft | 475 kts | 337° |
| 2026-04-30 12:39 | 10.94746 | 122.44338 | 39948 ft | 474 kts | 338° |
| 2026-04-30 12:40 | 11.00822 | 122.41744 | 39958 ft | 474 kts | 338° |
| 2026-04-30 12:40 | 11.06853 | 122.39148 | 39958 ft | 474 kts | 337° |
| 2026-04-30 12:41 | 11.12918 | 122.36527 | 39959 ft | 474 kts | 337° |
| 2026-04-30 12:41 | 11.18993 | 122.33898 | 39959 ft | 474 kts | 337° |
| 2026-04-30 12:42 | 11.25060 | 122.31265 | 39960 ft | 474 kts | 337° |
| 2026-04-30 12:42 | 11.31086 | 122.28655 | 39956 ft | 474 kts | 337° |
| 2026-04-30 12:43 | 11.37160 | 122.26024 | 39948 ft | 475 kts | 337° |
| 2026-04-30 12:43 | 11.43250 | 122.23384 | 39942 ft | 475 kts | 337° |
| 2026-04-30 12:44 | 11.49322 | 122.20750 | 39942 ft | 474 kts | 337° |
| 2026-04-30 12:44 | 11.55337 | 122.18140 | 39937 ft | 473 kts | 337° |
| 2026-04-30 12:45 | 11.61389 | 122.15512 | 39938 ft | 474 kts | 337° |
| 2026-04-30 12:45 | 11.67451 | 122.12878 | 39938 ft | 473 kts | 337° |
| 2026-04-30 12:46 | 11.73503 | 122.10248 | 39938 ft | 472 kts | 337° |
| 2026-04-30 12:46 | 11.79503 | 122.07640 | 39939 ft | 472 kts | 337° |
| 2026-04-30 12:47 | 11.85549 | 122.05009 | 39945 ft | 472 kts | 336° |
| 2026-04-30 12:47 | 11.91589 | 122.02380 | 39950 ft | 471 kts | 336° |
| 2026-04-30 12:48 | 11.97618 | 121.99755 | 39946 ft | 471 kts | 336° |
| 2026-04-30 12:48 | 12.03646 | 121.97128 | 39946 ft | 471 kts | 336° |
| 2026-04-30 12:49 | 12.09637 | 121.94517 | 39944 ft | 472 kts | 336° |
| 2026-04-30 12:49 | 12.15673 | 121.91885 | 39944 ft | 471 kts | 336° |
| 2026-04-30 12:50 | 12.21708 | 121.89252 | 39945 ft | 472 kts | 336° |
| 2026-04-30 12:50 | 12.27714 | 121.86631 | 39949 ft | 472 kts | 336° |
| 2026-04-30 12:51 | 12.33758 | 121.83991 | 39950 ft | 472 kts | 336° |
| 2026-04-30 12:51 | 12.39804 | 121.81348 | 39947 ft | 473 kts | 336° |
| 2026-04-30 12:52 | 12.45844 | 121.78703 | 39947 ft | 472 kts | 336° |
| 2026-04-30 12:52 | 12.50854 | 121.76509 | 39950 ft | 470 kts | 336° |
| 2026-04-30 12:53 | 12.57841 | 121.73448 | 39892 ft | 470 kts | 336° |
| 2026-04-30 12:53 | 12.60838 | 121.72134 | 39657 ft | 466 kts | 336° |
| 2026-04-30 12:53 | 12.63809 | 121.70832 | 39420 ft | 464 kts | 336° |
| 2026-04-30 12:54 | 12.66773 | 121.69532 | 39205 ft | 464 kts | 336° |
| 2026-04-30 12:54 | 12.68738 | 121.68670 | 39045 ft | 465 kts | 336° |
| 2026-04-30 12:54 | 12.71712 | 121.67365 | 38816 ft | 466 kts | 336° |
| 2026-04-30 12:54 | 12.74691 | 121.66058 | 38583 ft | 466 kts | 336° |
| 2026-04-30 12:55 | 12.78689 | 121.64302 | 38222 ft | 468 kts | 336° |
| 2026-04-30 12:55 | 12.81648 | 121.63004 | 37973 ft | 469 kts | 336° |
| 2026-04-30 12:55 | 12.84655 | 121.61684 | 37712 ft | 471 kts | 336° |
| 2026-04-30 12:55 | 12.87673 | 121.60357 | 37451 ft | 472 kts | 336° |
| 2026-04-30 12:56 | 12.90687 | 121.59033 | 37200 ft | 472 kts | 336° |
| 2026-04-30 12:56 | 12.93704 | 121.57706 | 36869 ft | 469 kts | 336° |
| 2026-04-30 12:56 | 12.96701 | 121.56389 | 36365 ft | 469 kts | 336° |
| 2026-04-30 12:56 | 12.98684 | 121.55517 | 35973 ft | 469 kts | 336° |
| 2026-04-30 12:57 | 13.02668 | 121.53764 | 35175 ft | 471 kts | 336° |
| 2026-04-30 12:57 | 13.05693 | 121.52433 | 34526 ft | 474 kts | 336° |
| 2026-04-30 12:57 | 13.08736 | 121.51094 | 33786 ft | 479 kts | 335° |
| 2026-04-30 12:57 | 13.10811 | 121.50180 | 33206 ft | 482 kts | 335° |
| 2026-04-30 12:58 | 13.13862 | 121.48836 | 32424 ft | 485 kts | 335° |
| 2026-04-30 12:58 | 13.18023 | 121.47003 | 31352 ft | 488 kts | 335° |
| 2026-04-30 12:58 | 13.20086 | 121.46095 | 30980 ft | 486 kts | 336° |
| 2026-04-30 12:58 | 13.23180 | 121.44732 | 30459 ft | 481 kts | 336° |
| 2026-04-30 12:59 | 13.26243 | 121.43382 | 29876 ft | 478 kts | 336° |
| 2026-04-30 12:59 | 13.29289 | 121.42039 | 29253 ft | 474 kts | 336° |
| 2026-04-30 12:59 | 13.32300 | 121.40711 | 28697 ft | 468 kts | 336° |
| 2026-04-30 12:59 | 13.36237 | 121.38974 | 27952 ft | 462 kts | 336° |
| 2026-04-30 13:00 | 13.38229 | 121.38095 | 27582 ft | 460 kts | 336° |
| 2026-04-30 13:00 | 13.41112 | 121.36822 | 27021 ft | 455 kts | 336° |
| 2026-04-30 13:00 | 13.44010 | 121.35540 | 26481 ft | 451 kts | 336° |
| 2026-04-30 13:00 | 13.46886 | 121.34270 | 25916 ft | 449 kts | 336° |
| 2026-04-30 13:01 | 13.49750 | 121.33005 | 25345 ft | 446 kts | 336° |
| 2026-04-30 13:01 | 13.52589 | 121.31752 | 24790 ft | 443 kts | 336° |
| 2026-04-30 13:01 | 13.55413 | 121.30501 | 24229 ft | 441 kts | 337° |
| 2026-04-30 13:01 | 13.58225 | 121.29254 | 23599 ft | 441 kts | 337° |
| 2026-04-30 13:02 | 13.61039 | 121.28009 | 22955 ft | 438 kts | 337° |
| 2026-04-30 13:02 | 13.63787 | 121.26793 | 22420 ft | 433 kts | 338° |
| 2026-04-30 13:02 | 13.66541 | 121.25575 | 21878 ft | 428 kts | 338° |
| 2026-04-30 13:02 | 13.70166 | 121.23970 | 21157 ft | 419 kts | 337° |
| 2026-04-30 13:03 | 13.71927 | 121.23189 | 20805 ft | 411 kts | 337° |
| 2026-04-30 13:03 | 13.74519 | 121.22040 | 20307 ft | 403 kts | 338° |
| 2026-04-30 13:03 | 13.77091 | 121.20899 | 19789 ft | 402 kts | 338° |
| 2026-04-30 13:03 | 13.79655 | 121.19762 | 19280 ft | 400 kts | 337° |
| 2026-04-30 13:04 | 13.82202 | 121.18638 | 18744 ft | 398 kts | 339° |
| 2026-04-30 13:04 | 13.84801 | 121.17773 | 18171 ft | 397 kts | 346° |
| 2026-04-30 13:04 | 13.87451 | 121.17040 | 17689 ft | 392 kts | 342° |
| 2026-04-30 13:04 | 13.89875 | 121.15794 | 17179 ft | 390 kts | 324° |
| 2026-04-30 13:05 | 13.91954 | 121.14009 | 16686 ft | 388 kts | 318° |
| 2026-04-30 13:05 | 13.93936 | 121.12133 | 16154 ft | 387 kts | 317° |
| 2026-04-30 13:05 | 13.95903 | 121.10254 | 15558 ft | 383 kts | 317° |
| 2026-04-30 13:06 | 13.99755 | 121.06564 | 14400 ft | 374 kts | 317° |
| 2026-04-30 13:06 | 14.01650 | 121.04747 | 13841 ft | 371 kts | 317° |
| 2026-04-30 13:06 | 14.03507 | 121.02965 | 13231 ft | 368 kts | 317° |
| 2026-04-30 13:06 | 14.05366 | 121.01175 | 12614 ft | 364 kts | 317° |
| 2026-04-30 13:07 | 14.07207 | 120.99394 | 12013 ft | 361 kts | 317° |
| 2026-04-30 13:07 | 14.09024 | 120.97629 | 11415 ft | 358 kts | 317° |
| 2026-04-30 13:07 | 14.10824 | 120.95872 | 10829 ft | 355 kts | 317° |
| 2026-04-30 13:07 | 14.12610 | 120.94127 | 10227 ft | 352 kts | 317° |
| 2026-04-30 13:08 | 14.14375 | 120.92397 | 9660 ft | 347 kts | 317° |
| 2026-04-30 13:08 | 14.16091 | 120.90697 | 9036 ft | 335 kts | 317° |
| 2026-04-30 13:08 | 14.17730 | 120.89057 | 8432 ft | 323 kts | 317° |
| 2026-04-30 13:08 | 14.19305 | 120.87464 | 7849 ft | 312 kts | 317° |
| 2026-04-30 13:09 | 14.20823 | 120.85920 | 7347 ft | 301 kts | 317° |
| 2026-04-30 13:09 | 14.22256 | 120.84445 | 6875 ft | 291 kts | 317° |
| 2026-04-30 13:09 | 14.23677 | 120.82969 | 6405 ft | 290 kts | 317° |
| 2026-04-30 13:09 | 14.25102 | 120.81483 | 5885 ft | 292 kts | 317° |
| 2026-04-30 13:10 | 14.26558 | 120.80013 | 5379 ft | 293 kts | 321° |
| 2026-04-30 13:10 | 14.28143 | 120.78725 | 4874 ft | 287 kts | 326° |
| 2026-04-30 13:10 | 14.29736 | 120.77549 | 4430 ft | 276 kts | 327° |
| 2026-04-30 13:10 | 14.31305 | 120.76475 | 4005 ft | 265 kts | 337° |
| 2026-04-30 13:11 | 14.33040 | 120.76082 | 3584 ft | 251 kts | 6° |
| 2026-04-30 13:11 | 14.34691 | 120.76490 | 3167 ft | 241 kts | 24° |
| 2026-04-30 13:11 | 14.36220 | 120.77154 | 2748 ft | 236 kts | 28° |
| 2026-04-30 13:11 | 14.37522 | 120.78083 | 2528 ft | 220 kts | 44° |
| 2026-04-30 13:12 | 14.38528 | 120.79149 | 2507 ft | 194 kts | 56° |
| 2026-04-30 13:12 | 14.39204 | 120.80240 | 2521 ft | 168 kts | 64° |
| 2026-04-30 13:12 | 14.39717 | 120.81225 | 2509 ft | 144 kts | 64° |
| 2026-04-30 13:13 | 14.40605 | 120.82919 | 2502 ft | 134 kts | 64° |
| 2026-04-30 13:13 | 14.41054 | 120.83768 | 2494 ft | 135 kts | 64° |
| 2026-04-30 13:13 | 14.41968 | 120.85466 | 2492 ft | 135 kts | 64° |
| 2026-04-30 13:14 | 14.42427 | 120.86312 | 2493 ft | 135 kts | 64° |
| 2026-04-30 13:14 | 14.42884 | 120.87159 | 2494 ft | 135 kts | 64° |
| 2026-04-30 13:14 | 14.43798 | 120.88857 | 2417 ft | 136 kts | 63° |
| 2026-04-30 13:15 | 14.44257 | 120.89710 | 2258 ft | 135 kts | 62° |
| 2026-04-30 13:15 | 14.45154 | 120.91380 | 1900 ft | 134 kts | 63° |
| 2026-04-30 13:15 | 14.45604 | 120.92217 | 1731 ft | 133 kts | 64° |
| 2026-04-30 13:16 | 14.46050 | 120.93046 | 1560 ft | 132 kts | 64° |
| 2026-04-30 13:16 | 14.46496 | 120.93876 | 1381 ft | 133 kts | 63° |
| 2026-04-30 13:16 | 14.46943 | 120.94709 | 1207 ft | 132 kts | 64° |
| 2026-04-30 13:17 | 14.47804 | 120.96366 | 942 ft | 131 kts | 64° |
| 2026-04-30 13:17 | 14.48231 | 120.97194 | 749 ft | 130 kts | 62° |
| 2026-04-30 13:17 | 14.49134 | 120.98825 | 411 ft | 131 kts | 64° |
| 2026-04-30 13:18 | 14.49578 | 120.99626 | 235 ft | 130 kts | 63° |
| 2026-04-30 13:18 | 14.50379 | 121.01076 | 65 ft | 75 kts | 59° |
| 2026-04-30 13:18 | 14.50584 | 121.01444 | 63 ft | 55 kts | 60° |
| 2026-04-30 13:19 | 14.50772 | 121.01784 | 65 ft | 53 kts | 60° |
| 2026-04-30 13:19 | 14.50950 | 121.02102 | 66 ft | 49 kts | 60° |
| 2026-04-30 13:19 | 14.51124 | 121.02292 | 67 ft | 17 kts | 28° |
| 2026-04-30 13:19 | 14.51181 | 121.02279 | 68 ft | 6 kts | 296° |
| 2026-04-30 13:20 | 14.51182 | 121.02276 | 68 ft | 1 kts | 290° |
| 2026-04-30 13:20 | 14.51182 | 121.02274 | 68 ft | 0 kts | 286° |
| 2026-04-30 13:21 | 14.51182 | 121.02250 | 67 ft | 6 kts | 262° |
| 2026-04-30 13:21 | 14.51153 | 121.02190 | 65 ft | 11 kts | 240° |
| 2026-04-30 13:21 | 14.51109 | 121.02110 | 63 ft | 14 kts | 240° |
| 2026-04-30 13:22 | 14.50999 | 121.01911 | 67 ft | 14 kts | 240° |
| 2026-04-30 13:22 | 14.50994 | 121.01901 | 65 ft | 0 kts | 240° |
| 2026-04-30 13:23 | 14.50993 | 121.01901 | 64 ft | 1 kts | 240° |
| 2026-04-30 13:23 | 14.50933 | 121.01795 | 64 ft | 13 kts | 240° |
| 2026-04-30 13:24 | 14.50826 | 121.01601 | 64 ft | 18 kts | 240° |
| 2026-04-30 13:24 | 14.50688 | 121.01353 | 62 ft | 21 kts | 240° |
| 2026-04-30 13:25 | 14.50539 | 121.01085 | 64 ft | 22 kts | 240° |
| 2026-04-30 13:25 | 14.50386 | 121.00811 | 62 ft | 21 kts | 240° |
| 2026-04-30 13:26 | 14.50198 | 121.00473 | 61 ft | 20 kts | 240° |
| 2026-04-30 13:26 | 14.50175 | 121.00330 | 65 ft | 8 kts | 339° |
| 2026-04-30 13:27 | 14.50246 | 121.00389 | 62 ft | 6 kts | 15° |
| 2026-04-30 13:28 | 14.50332 | 121.00419 | 64 ft | 0 kts | 20° |